Details for Qantas at YBBN




Go Back


Latest METAR
Local Time

YBBN 220830Z 08004KT 9999 FEW038 19/13 Q1025 NOSIG
22/09/2018, 18:52:29

Description
Results
Qantas Logo
Number of Pilots based at YBBN
0 Pilots Based here
Number of Qantas Flights Departed from YBBN
1 Flights Departed
Number of Qantas Flights Arrived at YBBN
2 Flights Arrived
Number of Qantas Schedules Departing from YBBN
82 Schedules
Number of Qantas Schedules Arriving at YBBN
81 Schedules
Number of Qantas Schedules Departing from YBBN availible today
42 Schedules Today
Number of Qantas Schedules Arriving at YBBN availible today
44 Schedules Today
Average Landing Rate at YBBN
-196 fpm
Qantas Average Landing Rate at YBBN
-82 fpm
Total Fuel Purchased at YBBN by Qantas
5,078.87 kgs / 11,196.88 lbs

Pilots Based at YBBN


Pilot ID
Pilot Name
Pilot Rank
No. of Flights
No. of Flying Hours
There are no pilots assigned to this hub!   Will you be the first?
Content